No particular awareness of the weather is required.    There are no Weather-warnings


Meteo18 Weather Cam more information Meteo18 Weather Cam


Thunder radar more information blitzortung!


Rain radar more information rain snow radar


Visit our other weather sites:

Template documentation
and downloads

And another site



Weather Underground History page Text

Daily Summary for January 13, 2018 Units:  Both    English   Metric
« Previous Day
Next Day »
Daily Weekly Monthly Yearly Custom
  High: Low: Average:
Temperature: TemperatureC °F /  -17.8 °C -0.3 °F /  -17.9 °C 2.3 °F /  -16.5 °C
Dew Point: DewpointC °F /  -17.8 °C -0.7 °F /  -18.2 °C 1.6 °F /  -16.9 °C
Humidity: Humidity % 86 % 95 %
Wind Speed: WindSpeedKMH mph /  0 km/h - 1.7 mph /  2.7 km/h
Wind Gust: WindSpeedGustKMH mph /  0 km/h - -
Wind:- - East
Pressure: PressurehPa in /  0 hPa 1015.8 in /  34395 hPa -
Precipitation: 0.5 in /  12.7 mm    
Historical Graphs
 
 
Tabular Data for January 13, 2018
Time Temperature Dew Point Pressure Wind Wind Speed Wind Gust Humidity Rainfall Rate (Hourly)
TemperatureC °F /  -17.8 °C DewpointC °F /  -17.8 °C PressurehPa in /  0 hPa Calm     Humidity % HourlyPrecipMM in /  0 mm
00:04 3.3 °F /  -15.9 °C 2.9 °F /  -16.2 °C 1024.3 in /  34682.8 hPa NNW 1.4 mph /  2.3 km/h 1.6 mph /  2.6 km/h 97 % 0.0 in /  0 mm
00:10 3.2 °F /  -16 °C 2.8 °F /  -16.2 °C 1024.3 in /  34682.8 hPa NW 1.4 mph /  2.3 km/h 1.6 mph /  2.6 km/h 97 % 0.0 in /  0 mm
00:16 3.2 °F /  -16 °C 2.8 °F /  -16.2 °C 1024.3 in /  34682.8 hPa Calm   1.6 mph /  2.6 km/h 97 % 0.0 in /  0 mm
00:22 2.9 °F /  -16.2 °C 2.3 °F /  -16.5 °C 1024.3 in /  34682.8 hPa Calm   1.6 mph /  2.6 km/h 96 % 0.0 in /  0 mm
00:40 2.4 °F /  -16.4 °C 2.0 °F /  -16.7 °C 1023.9 in /  34669.3 hPa NNE 1.4 mph /  2.3 km/h 1.6 mph /  2.6 km/h 97 % 0.0 in /  0 mm
00:46 2.3 °F /  -16.5 °C 1.9 °F /  -16.7 °C 1023.9 in /  34669.3 hPa Calm   1.6 mph /  2.6 km/h 97 % 0.0 in /  0 mm
00:52 2.0 °F /  -16.7 °C 1.4 °F /  -17 °C 1023.9 in /  34669.3 hPa NE 3.2 mph /  5.1 km/h 3.2 mph /  5.1 km/h 96 % 0.0 in /  0 mm
00:58 1.7 °F /  -16.8 °C 1.1 °F /  -17.2 °C 1023.9 in /  34669.3 hPa NE 3.2 mph /  5.1 km/h 4.8 mph /  7.7 km/h 96 % 0.0 in /  0 mm
01:10 1.5 °F /  -16.9 °C 1.1 °F /  -17.2 °C 1023.9 in /  34669.3 hPa Calm   1.6 mph /  2.6 km/h 97 % 0.0 in /  0 mm
01:16 1.7 °F /  -16.8 °C 1.3 °F /  -17.1 °C 1023.9 in /  34669.3 hPa Calm   1.6 mph /  2.6 km/h 97 % 0.3 in /  7.62 mm
01:22 1.8 °F /  -16.8 °C 1.4 °F /  -17 °C 1023.9 in /  34669.3 hPa NNE 1.4 mph /  2.3 km/h 1.6 mph /  2.6 km/h 97 % 0.3 in /  7.62 mm
01:28 1.9 °F /  -16.7 °C 1.5 °F /  -16.9 °C 1023.9 in /  34669.3 hPa NNE 1.4 mph /  2.3 km/h 1.6 mph /  2.6 km/h 97 % 0.3 in /  7.62 mm
01:34 1.9 °F /  -16.7 °C 1.5 °F /  -16.9 °C 1023.6 in /  34659.1 hPa NE 1.4 mph /  2.3 km/h 1.6 mph /  2.6 km/h 97 % 0.3 in /  7.62 mm
01:40 1.9 °F /  -16.7 °C 1.5 °F /  -16.9 °C 1023.6 in /  34659.1 hPa Calm     97 % 0.3 in /  7.62 mm
01:46 1.8 °F /  -16.8 °C 1.4 °F /  -17 °C 1023.6 in /  34659.1 hPa Calm     97 % 0.3 in /  7.62 mm
01:52 1.8 °F /  -16.8 °C 1.4 °F /  -17 °C 1023.2 in /  34645.6 hPa Calm     97 % 0.3 in /  7.62 mm
01:58 1.7 °F /  -16.8 °C 1.3 °F /  -17.1 °C 1023.2 in /  34645.6 hPa Calm     97 % 0.3 in /  7.62 mm
02:04 1.6 °F /  -16.9 °C 1.2 °F /  -17.1 °C 1023.2 in /  34645.6 hPa Calm     97 % 0.3 in /  7.62 mm
02:10 1.5 °F /  -16.9 °C 1.1 °F /  -17.2 °C 1023.2 in /  34645.6 hPa Calm     97 % 0.3 in /  7.62 mm
02:16 1.5 °F /  -16.9 °C 1.1 °F /  -17.2 °C 1023.2 in /  34645.6 hPa Calm     97 % 0.0 in /  0 mm
02:22 1.4 °F /  -17 °C 1.0 °F /  -17.2 °C 1022.9 in /  34635.4 hPa Calm     97 % 0.0 in /  0 mm
02:28 1.4 °F /  -17 °C 1.0 °F /  -17.2 °C 1022.9 in /  34635.4 hPa Calm   1.6 mph /  2.6 km/h 97 % 0.0 in /  0 mm
02:41 1.3 °F /  -17.1 °C 0.9 °F /  -17.3 °C 1022.9 in /  34635.4 hPa Calm   1.6 mph /  2.6 km/h 97 % 0.0 in /  0 mm
02:53 1.2 °F /  -17.1 °C 0.8 °F /  -17.3 °C 1022.9 in /  34635.4 hPa Calm     97 % 0.0 in /  0 mm
02:59 1.1 °F /  -17.2 °C 0.7 °F /  -17.4 °C 1022.9 in /  34635.4 hPa Calm     97 % 0.0 in /  0 mm
03:11 0.8 °F /  -17.3 °C 0.4 °F /  -17.6 °C 1022.6 in /  34625.2 hPa Calm     97 % 0.0 in /  0 mm
03:17 0.8 °F /  -17.3 °C 0.4 °F /  -17.6 °C 1022.9 in /  34635.4 hPa WNW 1.4 mph /  2.3 km/h 3.2 mph /  5.1 km/h 97 % 0.0 in /  0 mm
03:23 0.6 °F /  -17.4 °C 0.2 °F /  -17.7 °C 1022.9 in /  34635.4 hPa West 1.4 mph /  2.3 km/h 3.2 mph /  5.1 km/h 97 % 0.0 in /  0 mm
03:35 0.9 °F /  -17.3 °C 0.5 °F /  -17.5 °C 1022.6 in /  34625.2 hPa Calm     97 % 0.0 in /  0 mm
03:41 0.9 °F /  -17.3 °C 0.5 °F /  -17.5 °C 1022.2 in /  34611.7 hPa Calm     97 % 0.0 in /  0 mm
03:47 0.9 °F /  -17.3 °C 0.5 °F /  -17.5 °C 1022.2 in /  34611.7 hPa Calm     97 % 0.0 in /  0 mm
03:53 1.2 °F /  -17.1 °C 0.9 °F /  -17.3 °C 1022.2 in /  34611.7 hPa Calm     98 % 0.0 in /  0 mm
03:59 0.9 °F /  -17.3 °C 0.5 °F /  -17.5 °C 1022.2 in /  34611.7 hPa Calm     97 % 0.0 in /  0 mm
04:05 0.8 °F /  -17.3 °C 0.4 °F /  -17.6 °C 1022.2 in /  34611.7 hPa Calm     97 % 0.0 in /  0 mm
04:11 0.8 °F /  -17.3 °C 0.4 °F /  -17.6 °C 1022.2 in /  34611.7 hPa Calm     97 % 0.0 in /  0 mm
04:17 1.0 °F /  -17.2 °C 0.7 °F /  -17.4 °C 1022.2 in /  34611.7 hPa Calm     98 % 0.0 in /  0 mm
04:35 0.9 °F /  -17.3 °C 0.6 °F /  -17.4 °C 1021.9 in /  34601.5 hPa Calm     98 % 0.0 in /  0 mm
04:41 0.8 °F /  -17.3 °C 0.5 °F /  -17.5 °C 1021.9 in /  34601.5 hPa Calm     98 % 0.0 in /  0 mm
04:47 0.8 °F /  -17.3 °C 0.5 °F /  -17.5 °C 1022.2 in /  34611.7 hPa Calm     98 % 0.0 in /  0 mm
04:53 0.6 °F /  -17.4 °C 0.2 °F /  -17.7 °C 1021.9 in /  34601.5 hPa Calm     97 % 0.0 in /  0 mm
04:59 0.3 °F /  -17.6 °C -0.1 °F /  -17.8 °C 1021.9 in /  34601.5 hPa Calm     97 % 0.0 in /  0 mm
05:05 0.4 °F /  -17.6 °C 0.0 °F /  -17.8 °C 1022.2 in /  34611.7 hPa Calm     97 % 0.0 in /  0 mm
05:11 0.4 °F /  -17.6 °C 0.0 °F /  -17.8 °C 1021.9 in /  34601.5 hPa Calm     97 % 0.0 in /  0 mm
05:17 0.1 °F /  -17.7 °C -0.3 °F /  -17.9 °C 1021.9 in /  34601.5 hPa Calm     97 % 0.0 in /  0 mm
05:23 -0.3 °F /  -17.9 °C -0.7 °F /  -18.2 °C 1021.9 in /  34601.5 hPa SSE 1.4 mph /  2.3 km/h 1.6 mph /  2.6 km/h 97 % 0.0 in /  0 mm
05:29 -0.3 °F /  -17.9 °C -0.7 °F /  -18.2 °C 1021.9 in /  34601.5 hPa Calm   1.6 mph /  2.6 km/h 97 % 0.0 in /  0 mm
05:35 -0.2 °F /  -17.9 °C -0.6 °F /  -18.1 °C 1021.9 in /  34601.5 hPa Calm   1.6 mph /  2.6 km/h 97 % 0.0 in /  0 mm
05:41 -0.2 °F /  -17.9 °C -0.6 °F /  -18.1 °C 1021.9 in /  34601.5 hPa Calm     97 % 0.0 in /  0 mm
05:53 0.0 °F /  -17.8 °C -0.4 °F /  -18 °C 1021.6 in /  34591.4 hPa Calm     97 % 0.0 in /  0 mm
05:59 0.1 °F /  -17.7 °C -0.3 °F /  -17.9 °C 1021.6 in /  34591.4 hPa Calm     97 % 0.0 in /  0 mm
06:05 0.2 °F /  -17.7 °C -0.2 °F /  -17.9 °C 1021.6 in /  34591.4 hPa Calm     97 % 0.0 in /  0 mm
06:11 0.2 °F /  -17.7 °C -0.2 °F /  -17.9 °C 1021.6 in /  34591.4 hPa Calm     97 % 0.0 in /  0 mm
06:17 0.2 °F /  -17.7 °C -0.1 °F /  -17.8 °C 1021.6 in /  34591.4 hPa Calm     98 % 0.0 in /  0 mm
06:24 0.2 °F /  -17.7 °C -0.2 °F /  -17.9 °C 1021.6 in /  34591.4 hPa Calm     97 % 0.0 in /  0 mm
06:30 0.2 °F /  -17.7 °C -0.2 °F /  -17.9 °C 1021.6 in /  34591.4 hPa Calm     97 % 0.0 in /  0 mm
06:36 0.2 °F /  -17.7 °C -0.2 °F /  -17.9 °C 1021.2 in /  34577.8 hPa Calm     97 % 0.0 in /  0 mm
06:42 0.2 °F /  -17.7 °C -0.2 °F /  -17.9 °C 1021.2 in /  34577.8 hPa Calm     97 % 0.0 in /  0 mm
06:48 0.2 °F /  -17.7 °C -0.2 °F /  -17.9 °C 1021.2 in /  34577.8 hPa Calm     97 % 0.0 in /  0 mm
06:54 0.2 °F /  -17.7 °C -0.2 °F /  -17.9 °C 1021.2 in /  34577.8 hPa Calm     97 % 0.0 in /  0 mm
07:00 0.3 °F /  -17.6 °C -0.1 °F /  -17.8 °C 1021.2 in /  34577.8 hPa Calm     97 % 0.0 in /  0 mm
07:06 0.3 °F /  -17.6 °C -0.1 °F /  -17.8 °C 1021.2 in /  34577.8 hPa Calm     97 % 0.0 in /  0 mm
07:18 0.3 °F /  -17.6 °C 0.0 °F /  -17.8 °C 1020.9 in /  34567.7 hPa Calm     98 % 0.0 in /  0 mm
07:24 0.4 °F /  -17.6 °C 0.1 °F /  -17.7 °C 1020.9 in /  34567.7 hPa Calm     98 % 0.0 in /  0 mm
07:30 0.4 °F /  -17.6 °C 0.1 °F /  -17.7 °C 1020.9 in /  34567.7 hPa Calm     98 % 0.0 in /  0 mm
07:36 0.4 °F /  -17.6 °C 0.1 °F /  -17.7 °C 1020.9 in /  34567.7 hPa Calm     98 % 0.0 in /  0 mm
07:42 0.5 °F /  -17.5 °C 0.2 °F /  -17.7 °C 1020.9 in /  34567.7 hPa Calm     98 % 0.0 in /  0 mm
07:48 0.6 °F /  -17.4 °C 0.3 °F /  -17.6 °C 1020.9 in /  34567.7 hPa Calm     98 % 0.3 in /  7.62 mm
08:00 0.6 °F /  -17.4 °C 0.3 °F /  -17.6 °C 1020.5 in /  34554.1 hPa Calm     98 % 0.3 in /  7.62 mm
08:07 0.6 °F /  -17.4 °C 0.3 °F /  -17.6 °C 1020.5 in /  34554.1 hPa Calm     98 % 0.3 in /  7.62 mm
08:13 0.7 °F /  -17.4 °C 0.4 °F /  -17.6 °C 1020.5 in /  34554.1 hPa Calm   1.6 mph /  2.6 km/h 98 % 0.3 in /  7.62 mm
08:19 0.8 °F /  -17.3 °C 0.5 °F /  -17.5 °C 1020.5 in /  34554.1 hPa Calm   1.6 mph /  2.6 km/h 98 % 0.3 in /  7.62 mm
08:25 0.8 °F /  -17.3 °C 0.5 °F /  -17.5 °C 1020.5 in /  34554.1 hPa ENE 4.7 mph /  7.6 km/h 4.8 mph /  7.7 km/h 98 % 0.3 in /  7.62 mm
08:31 0.7 °F /  -17.4 °C 0.4 °F /  -17.6 °C 1020.5 in /  34554.1 hPa East 3.2 mph /  5.1 km/h 4.8 mph /  7.7 km/h 98 % 0.3 in /  7.62 mm
08:37 0.8 °F /  -17.3 °C 0.5 °F /  -17.5 °C 1020.5 in /  34554.1 hPa ENE 6.4 mph /  10.3 km/h 6.4 mph /  10.3 km/h 98 % 0.3 in /  7.62 mm
08:43 0.8 °F /  -17.3 °C 0.5 °F /  -17.5 °C 1020.5 in /  34554.1 hPa East 9.7 mph /  15.6 km/h 9.7 mph /  15.6 km/h 98 % 0.3 in /  7.62 mm
08:49 0.7 °F /  -17.4 °C 0.4 °F /  -17.6 °C 1020.5 in /  34554.1 hPa ESE 1.4 mph /  2.3 km/h 4.8 mph /  7.7 km/h 98 % 0.0 in /  0 mm
08:55 0.7 °F /  -17.4 °C 0.4 °F /  -17.6 °C 1020.5 in /  34554.1 hPa Calm   3.2 mph /  5.1 km/h 98 % 0.0 in /  0 mm
09:01 0.8 °F /  -17.3 °C 0.5 °F /  -17.5 °C 1020.5 in /  34554.1 hPa Calm   3.2 mph /  5.1 km/h 98 % 0.0 in /  0 mm
09:07 0.8 °F /  -17.3 °C 0.5 °F /  -17.5 °C 1020.5 in /  34554.1 hPa NNE 4.7 mph /  7.6 km/h 6.4 mph /  10.3 km/h 98 % 0.0 in /  0 mm
09:13 0.8 °F /  -17.3 °C 0.5 °F /  -17.5 °C 1020.5 in /  34554.1 hPa NNE 3.2 mph /  5.1 km/h 6.4 mph /  10.3 km/h 98 % 0.0 in /  0 mm
09:19 0.9 °F /  -17.3 °C 0.6 °F /  -17.4 °C 1020.5 in /  34554.1 hPa East 1.4 mph /  2.3 km/h 6.4 mph /  10.3 km/h 98 % 0.0 in /  0 mm
09:25 0.9 °F /  -17.3 °C 0.6 °F /  -17.4 °C 1020.2 in /  34544 hPa NE 3.2 mph /  5.1 km/h 4.8 mph /  7.7 km/h 98 % 0.0 in /  0 mm
09:31 0.9 °F /  -17.3 °C 0.6 °F /  -17.4 °C 1020.5 in /  34554.1 hPa NNE 3.2 mph /  5.1 km/h 3.2 mph /  5.1 km/h 98 % 0.0 in /  0 mm
09:37 0.9 °F /  -17.3 °C 0.6 °F /  -17.4 °C 1020.5 in /  34554.1 hPa NNE 1.4 mph /  2.3 km/h 3.2 mph /  5.1 km/h 98 % 0.0 in /  0 mm
09:47 1.2 °F /  -17.1 °C 0.9 °F /  -17.3 °C 1020.5 in /  34554.1 hPa Calm   1.6 mph /  2.6 km/h 98 % 0.0 in /  0 mm
09:53 1.3 °F /  -17.1 °C 1.0 °F /  -17.2 °C 1020.5 in /  34554.1 hPa Calm   1.6 mph /  2.6 km/h 98 % 0.0 in /  0 mm
10:03 1.4 °F /  -17 °C 1.1 °F /  -17.2 °C 1020.2 in /  34544 hPa NE 3.2 mph /  5.1 km/h 4.8 mph /  7.7 km/h 98 % 0.0 in /  0 mm
10:09 1.5 °F /  -16.9 °C 1.2 °F /  -17.1 °C 1020.2 in /  34544 hPa NNE 3.2 mph /  5.1 km/h 3.2 mph /  5.1 km/h 98 % 0.0 in /  0 mm
10:17 1.7 °F /  -16.8 °C 1.4 °F /  -17 °C 1020.2 in /  34544 hPa Calm   3.2 mph /  5.1 km/h 98 % 0.0 in /  0 mm
10:23 1.7 °F /  -16.8 °C 1.4 °F /  -17 °C 1020.2 in /  34544 hPa Calm   1.6 mph /  2.6 km/h 98 % 0.0 in /  0 mm
10:29 1.8 °F /  -16.8 °C 1.5 °F /  -16.9 °C 1020.2 in /  34544 hPa East 4.7 mph /  7.6 km/h 6.4 mph /  10.3 km/h 98 % 0.0 in /  0 mm
10:35 1.9 °F /  -16.7 °C 1.6 °F /  -16.9 °C 1019.9 in /  34533.8 hPa ENE 3.2 mph /  5.1 km/h 6.4 mph /  10.3 km/h 98 % 0.0 in /  0 mm
10:41 1.8 °F /  -16.8 °C 1.5 °F /  -16.9 °C 1019.9 in /  34533.8 hPa NE 4.7 mph /  7.6 km/h 6.4 mph /  10.3 km/h 98 % 0.0 in /  0 mm
10:47 1.7 °F /  -16.8 °C 1.4 °F /  -17 °C 1019.9 in /  34533.8 hPa ENE 1.4 mph /  2.3 km/h 6.4 mph /  10.3 km/h 98 % 0.0 in /  0 mm
10:53 1.9 °F /  -16.7 °C 1.6 °F /  -16.9 °C 1019.9 in /  34533.8 hPa NE 1.4 mph /  2.3 km/h 3.2 mph /  5.1 km/h 98 % 0.0 in /  0 mm
10:59 2.0 °F /  -16.7 °C 1.7 °F /  -16.8 °C 1019.9 in /  34533.8 hPa NNE 1.4 mph /  2.3 km/h 6.4 mph /  10.3 km/h 98 % 0.0 in /  0 mm
11:05 2.1 °F /  -16.6 °C 1.8 °F /  -16.8 °C 1019.9 in /  34533.8 hPa ENE 3.2 mph /  5.1 km/h 9.7 mph /  15.6 km/h 98 % 0.0 in /  0 mm
11:11 2.1 °F /  -16.6 °C 1.8 °F /  -16.8 °C 1019.9 in /  34533.8 hPa ENE 3.2 mph /  5.1 km/h 6.4 mph /  10.3 km/h 98 % 0.0 in /  0 mm
11:19 2.3 °F /  -16.5 °C 2.0 °F /  -16.7 °C 1019.9 in /  34533.8 hPa NE 4.7 mph /  7.6 km/h 9.7 mph /  15.6 km/h 98 % 0.0 in /  0 mm
11:25 2.4 °F /  -16.4 °C 2.1 °F /  -16.6 °C 1019.9 in /  34533.8 hPa ENE 6.4 mph /  10.3 km/h 8.0 mph /  12.9 km/h 98 % 0.0 in /  0 mm
11:31 2.4 °F /  -16.4 °C 2.1 °F /  -16.6 °C 1019.9 in /  34533.8 hPa ENE 3.2 mph /  5.1 km/h 9.7 mph /  15.6 km/h 98 % 0.0 in /  0 mm
11:37 2.3 °F /  -16.5 °C 2.0 °F /  -16.7 °C 1019.5 in /  34520.3 hPa NNE 4.7 mph /  7.6 km/h 12.9 mph /  20.8 km/h 98 % 0.0 in /  0 mm
11:43 2.4 °F /  -16.4 °C 2.1 °F /  -16.6 °C 1019.5 in /  34520.3 hPa ENE 1.4 mph /  2.3 km/h 9.7 mph /  15.6 km/h 98 % 0.0 in /  0 mm
11:49 2.7 °F /  -16.3 °C 2.4 °F /  -16.4 °C 1019.5 in /  34520.3 hPa East 6.4 mph /  10.3 km/h 8.0 mph /  12.9 km/h 98 % 0.0 in /  0 mm
11:55 2.8 °F /  -16.2 °C 2.5 °F /  -16.4 °C 1019.5 in /  34520.3 hPa East 7.9 mph /  12.7 km/h 9.7 mph /  15.6 km/h 98 % 0.0 in /  0 mm
12:01 2.8 °F /  -16.2 °C 2.5 °F /  -16.4 °C 1019.5 in /  34520.3 hPa NNE 3.2 mph /  5.1 km/h 9.7 mph /  15.6 km/h 98 % 0.0 in /  0 mm
12:07 2.9 °F /  -16.2 °C 2.6 °F /  -16.3 °C 1019.5 in /  34520.3 hPa East 3.2 mph /  5.1 km/h 11.3 mph /  18.2 km/h 98 % 0.0 in /  0 mm
12:13 3.1 °F /  -16.1 °C 2.8 °F /  -16.2 °C 1019.5 in /  34520.3 hPa NE 4.7 mph /  7.6 km/h 11.3 mph /  18.2 km/h 98 % 0.0 in /  0 mm
12:19 2.9 °F /  -16.2 °C 2.6 °F /  -16.3 °C 1019.5 in /  34520.3 hPa NE 6.4 mph /  10.3 km/h 6.4 mph /  10.3 km/h 98 % 0.0 in /  0 mm
12:25 3.1 °F /  -16.1 °C 2.8 °F /  -16.2 °C 1019.2 in /  34510.1 hPa ENE 3.2 mph /  5.1 km/h 11.3 mph /  18.2 km/h 98 % 0.0 in /  0 mm
12:31 3.1 °F /  -16.1 °C 2.8 °F /  -16.2 °C 1019.2 in /  34510.1 hPa ENE 4.7 mph /  7.6 km/h 14.5 mph /  23.3 km/h 98 % 0.0 in /  0 mm
12:37 3.2 °F /  -16 °C 2.9 °F /  -16.2 °C 1018.8 in /  34496.6 hPa ENE 7.9 mph /  12.7 km/h 9.7 mph /  15.6 km/h 98 % 0.0 in /  0 mm
12:44 3.3 °F /  -15.9 °C 3.0 °F /  -16.1 °C 1018.8 in /  34496.6 hPa NE 4.7 mph /  7.6 km/h 9.7 mph /  15.6 km/h 98 % 0.0 in /  0 mm
12:49 3.5 °F /  -15.8 °C 3.2 °F /  -16 °C 1018.8 in /  34496.6 hPa East 9.7 mph /  15.6 km/h 11.3 mph /  18.2 km/h 98 % 0.0 in /  0 mm
12:55 3.4 °F /  -15.9 °C 3.1 °F /  -16.1 °C 1018.8 in /  34496.6 hPa East 4.7 mph /  7.6 km/h 9.7 mph /  15.6 km/h 98 % 0.0 in /  0 mm
13:02 3.5 °F /  -15.8 °C 3.2 °F /  -16 °C 1018.5 in /  34486.4 hPa ENE 1.4 mph /  2.3 km/h 6.4 mph /  10.3 km/h 98 % 0.0 in /  0 mm
13:08 3.7 °F /  -15.7 °C 3.4 °F /  -15.9 °C 1018.5 in /  34486.4 hPa ENE 3.2 mph /  5.1 km/h 8.0 mph /  12.9 km/h 98 % 0.0 in /  0 mm
13:14 3.9 °F /  -15.6 °C 3.6 °F /  -15.8 °C 1018.2 in /  34476.3 hPa NE 1.4 mph /  2.3 km/h 3.2 mph /  5.1 km/h 98 % 0.0 in /  0 mm
13:20 4.1 °F /  -15.5 °C 3.8 °F /  -15.7 °C 1018.2 in /  34476.3 hPa East 6.4 mph /  10.3 km/h 6.4 mph /  10.3 km/h 98 % 0.0 in /  0 mm
13:25 4.1 °F /  -15.5 °C 3.7 °F /  -15.7 °C 1017.8 in /  34462.7 hPa NE 6.4 mph /  10.3 km/h 9.7 mph /  15.6 km/h 97 % 0.0 in /  0 mm
13:31 4.1 °F /  -15.5 °C 3.7 °F /  -15.7 °C 1017.8 in /  34462.7 hPa NNE 1.4 mph /  2.3 km/h 8.0 mph /  12.9 km/h 97 % 0.0 in /  0 mm
13:38 4.3 °F /  -15.4 °C 3.9 °F /  -15.6 °C 1017.8 in /  34462.7 hPa East 7.9 mph /  12.7 km/h 12.9 mph /  20.8 km/h 97 % 0.0 in /  0 mm
13:44 4.5 °F /  -15.3 °C 4.1 °F /  -15.5 °C 1017.8 in /  34462.7 hPa East 1.4 mph /  2.3 km/h 4.8 mph /  7.7 km/h 97 % 0.0 in /  0 mm
13:50 4.4 °F /  -15.3 °C 3.7 °F /  -15.7 °C 1017.5 in /  34452.6 hPa ESE 1.4 mph /  2.3 km/h 6.4 mph /  10.3 km/h 95 % 0.0 in /  0 mm
13:55 4.7 °F /  -15.2 °C 4.0 °F /  -15.6 °C 1017.5 in /  34452.6 hPa ENE 3.2 mph /  5.1 km/h 6.4 mph /  10.3 km/h 95 % 0.0 in /  0 mm
14:02 4.8 °F /  -15.1 °C 3.9 °F /  -15.6 °C 1017.5 in /  34452.6 hPa East 4.7 mph /  7.6 km/h 8.0 mph /  12.9 km/h 94 % 0.0 in /  0 mm
14:08 4.9 °F /  -15.1 °C 3.7 °F /  -15.7 °C 1017.5 in /  34452.6 hPa ENE 3.2 mph /  5.1 km/h 11.3 mph /  18.2 km/h 92 % 0.0 in /  0 mm
14:14 5.2 °F /  -14.9 °C 3.7 °F /  -15.7 °C 1017.2 in /  34442.4 hPa ENE 3.2 mph /  5.1 km/h 8.0 mph /  12.9 km/h 90 % 0.0 in /  0 mm
14:20 5.3 °F /  -14.8 °C 3.8 °F /  -15.7 °C 1017.2 in /  34442.4 hPa NE 4.7 mph /  7.6 km/h 6.4 mph /  10.3 km/h 90 % 0.0 in /  0 mm
14:25 5.4 °F /  -14.8 °C 3.7 °F /  -15.7 °C 1017.2 in /  34442.4 hPa ENE 3.2 mph /  5.1 km/h 6.4 mph /  10.3 km/h 89 % 0.0 in /  0 mm
14:38 5.6 °F /  -14.7 °C 3.6 °F /  -15.8 °C 1016.8 in /  34428.8 hPa ENE 3.2 mph /  5.1 km/h 9.7 mph /  15.6 km/h 87 % 0.0 in /  0 mm
14:44 5.7 °F /  -14.6 °C 3.7 °F /  -15.7 °C 1017.2 in /  34442.4 hPa ENE 6.4 mph /  10.3 km/h 9.7 mph /  15.6 km/h 87 % 0.0 in /  0 mm
14:50 5.7 °F /  -14.6 °C 3.5 °F /  -15.8 °C 1016.8 in /  34428.8 hPa ENE 6.4 mph /  10.3 km/h 8.0 mph /  12.9 km/h 86 % 0.0 in /  0 mm
14:56 5.6 °F /  -14.7 °C 3.4 °F /  -15.9 °C 1016.8 in /  34428.8 hPa East 4.7 mph /  7.6 km/h 9.7 mph /  15.6 km/h 86 % 0.0 in /  0 mm
15:02 5.5 °F /  -14.7 °C 3.5 °F /  -15.8 °C 1016.8 in /  34428.8 hPa NE 6.4 mph /  10.3 km/h 8.0 mph /  12.9 km/h 87 % 0.0 in /  0 mm
15:10 5.2 °F /  -14.9 °C 3.4 °F /  -15.9 °C 1016.5 in /  34418.7 hPa NE 6.4 mph /  10.3 km/h 11.3 mph /  18.2 km/h 88 % 0.0 in /  0 mm
15:16 5.0 °F /  -15 °C 3.5 °F /  -15.8 °C 1016.5 in /  34418.7 hPa NE 13.0 mph /  20.9 km/h 13.0 mph /  20.9 km/h 90 % 0.0 in /  0 mm
15:22 4.9 °F /  -15.1 °C 3.4 °F /  -15.9 °C 1016.5 in /  34418.7 hPa NNE 6.4 mph /  10.3 km/h 11.3 mph /  18.2 km/h 90 % 0.0 in /  0 mm
15:28 4.8 °F /  -15.1 °C 3.3 °F /  -15.9 °C 1016.5 in /  34418.7 hPa NE 1.4 mph /  2.3 km/h 14.5 mph /  23.3 km/h 90 % 0.0 in /  0 mm
15:34 4.8 °F /  -15.1 °C 3.3 °F /  -15.9 °C 1016.5 in /  34418.7 hPa NE 4.7 mph /  7.6 km/h 9.7 mph /  15.6 km/h 90 % 0.0 in /  0 mm
15:40 4.7 °F /  -15.2 °C 3.2 °F /  -16 °C 1016.5 in /  34418.7 hPa NNE 4.7 mph /  7.6 km/h 8.0 mph /  12.9 km/h 90 % 0.0 in /  0 mm
15:46 4.7 °F /  -15.2 °C 3.4 °F /  -15.9 °C 1016.5 in /  34418.7 hPa NNW 1.4 mph /  2.3 km/h 8.0 mph /  12.9 km/h 91 % 0.0 in /  0 mm
16:00 4.4 °F /  -15.3 °C 3.2 °F /  -16 °C 1016.5 in /  34418.7 hPa NE 6.4 mph /  10.3 km/h 9.7 mph /  15.6 km/h 92 % 0.0 in /  0 mm
16:08 4.4 °F /  -15.3 °C 3.2 °F /  -16 °C 1016.1 in /  34405.1 hPa NNE 9.7 mph /  15.6 km/h 12.9 mph /  20.8 km/h 92 % 0.0 in /  0 mm
16:14 4.4 °F /  -15.3 °C 3.2 °F /  -16 °C 1016.5 in /  34418.7 hPa NE 6.4 mph /  10.3 km/h 9.7 mph /  15.6 km/h 92 % 0.0 in /  0 mm
16:20 4.4 °F /  -15.3 °C 3.2 °F /  -16 °C 1016.5 in /  34418.7 hPa NE 7.9 mph /  12.7 km/h 9.7 mph /  15.6 km/h 92 % 0.0 in /  0 mm
16:26 4.3 °F /  -15.4 °C 3.0 °F /  -16.1 °C 1016.1 in /  34405.1 hPa NE 3.2 mph /  5.1 km/h 6.4 mph /  10.3 km/h 91 % 0.0 in /  0 mm
16:32 4.1 °F /  -15.5 °C 2.9 °F /  -16.2 °C 1016.5 in /  34418.7 hPa NNE 3.2 mph /  5.1 km/h 6.4 mph /  10.3 km/h 92 % 0.0 in /  0 mm
16:38 3.9 °F /  -15.6 °C 2.7 °F /  -16.3 °C 1016.5 in /  34418.7 hPa NNW 1.4 mph /  2.3 km/h 8.0 mph /  12.9 km/h 92 % 0.0 in /  0 mm
16:44 3.8 °F /  -15.7 °C 2.8 °F /  -16.2 °C 1016.5 in /  34418.7 hPa NNW 3.2 mph /  5.1 km/h 8.0 mph /  12.9 km/h 93 % 0.0 in /  0 mm
16:56 3.7 °F /  -15.7 °C 2.7 °F /  -16.3 °C 1016.5 in /  34418.7 hPa NNW 3.2 mph /  5.1 km/h 8.0 mph /  12.9 km/h 93 % 0.0 in /  0 mm
17:02 3.7 °F /  -15.7 °C 2.7 °F /  -16.3 °C 1016.5 in /  34418.7 hPa NNW 3.2 mph /  5.1 km/h 4.8 mph /  7.7 km/h 93 % 0.0 in /  0 mm
17:08 3.6 °F /  -15.8 °C 2.6 °F /  -16.3 °C 1016.5 in /  34418.7 hPa Calm   4.8 mph /  7.7 km/h 93 % 0.0 in /  0 mm
17:16 3.4 °F /  -15.9 °C 2.4 °F /  -16.4 °C 1016.5 in /  34418.7 hPa NNE 3.2 mph /  5.1 km/h 3.2 mph /  5.1 km/h 93 % 0.0 in /  0 mm
17:22 3.4 °F /  -15.9 °C 2.4 °F /  -16.4 °C 1016.5 in /  34418.7 hPa Calm   1.6 mph /  2.6 km/h 93 % 0.0 in /  0 mm
17:28 3.4 °F /  -15.9 °C 2.5 °F /  -16.4 °C 1016.5 in /  34418.7 hPa NE 3.2 mph /  5.1 km/h 4.8 mph /  7.7 km/h 94 % 0.0 in /  0 mm
17:34 3.5 °F /  -15.8 °C 2.5 °F /  -16.4 °C 1016.1 in /  34405.1 hPa NNE 3.2 mph /  5.1 km/h 4.8 mph /  7.7 km/h 93 % 0.0 in /  0 mm
17:40 3.5 °F /  -15.8 °C 2.6 °F /  -16.3 °C 1016.5 in /  34418.7 hPa NE 3.2 mph /  5.1 km/h 4.8 mph /  7.7 km/h 94 % 0.0 in /  0 mm
17:46 3.6 °F /  -15.8 °C 2.6 °F /  -16.3 °C 1016.5 in /  34418.7 hPa NE 4.7 mph /  7.6 km/h 6.4 mph /  10.3 km/h 93 % 0.0 in /  0 mm
17:52 3.6 °F /  -15.8 °C 2.6 °F /  -16.3 °C 1016.1 in /  34405.1 hPa NE 3.2 mph /  5.1 km/h 6.4 mph /  10.3 km/h 93 % 0.0 in /  0 mm
17:58 3.6 °F /  -15.8 °C 2.6 °F /  -16.3 °C 1016.1 in /  34405.1 hPa Calm   3.2 mph /  5.1 km/h 93 % 0.0 in /  0 mm
18:04 3.4 °F /  -15.9 °C 2.4 °F /  -16.4 °C 1016.1 in /  34405.1 hPa Calm   1.6 mph /  2.6 km/h 93 % 0.0 in /  0 mm
18:10 3.4 °F /  -15.9 °C 2.4 °F /  -16.4 °C 1016.1 in /  34405.1 hPa NE 1.4 mph /  2.3 km/h 3.2 mph /  5.1 km/h 93 % 0.0 in /  0 mm
18:16 3.4 °F /  -15.9 °C 2.4 °F /  -16.4 °C 1016.1 in /  34405.1 hPa Calm   1.6 mph /  2.6 km/h 93 % 0.0 in /  0 mm
18:22 3.3 °F /  -15.9 °C 2.3 °F /  -16.5 °C 1016.1 in /  34405.1 hPa Calm     93 % 0.0 in /  0 mm
18:28 3.2 °F /  -16 °C 2.3 °F /  -16.5 °C 1016.1 in /  34405.1 hPa Calm     94 % 0.0 in /  0 mm
18:35 3.2 °F /  -16 °C 2.3 °F /  -16.5 °C 1016.1 in /  34405.1 hPa Calm     94 % 0.0 in /  0 mm
18:41 3.2 °F /  -16 °C 2.3 °F /  -16.5 °C 1016.1 in /  34405.1 hPa Calm     94 % 0.0 in /  0 mm
18:47 3.1 °F /  -16.1 °C 2.2 °F /  -16.6 °C 1016.1 in /  34405.1 hPa Calm     94 % 0.0 in /  0 mm
18:53 3.1 °F /  -16.1 °C 2.2 °F /  -16.6 °C 1016.1 in /  34405.1 hPa Calm     94 % 0.0 in /  0 mm
18:59 3.1 °F /  -16.1 °C 2.2 °F /  -16.6 °C 1016.1 in /  34405.1 hPa Calm     94 % 0.0 in /  0 mm
19:05 3.1 °F /  -16.1 °C 2.2 °F /  -16.6 °C 1016.1 in /  34405.1 hPa Calm     94 % 0.0 in /  0 mm
19:11 3.1 °F /  -16.1 °C 2.4 °F /  -16.4 °C 1016.1 in /  34405.1 hPa Calm     95 % 0.0 in /  0 mm
19:17 3.1 °F /  -16.1 °C 2.4 °F /  -16.4 °C 1016.1 in /  34405.1 hPa NE 1.4 mph /  2.3 km/h 1.6 mph /  2.6 km/h 95 % 0.0 in /  0 mm
19:23 3.1 °F /  -16.1 °C 2.2 °F /  -16.6 °C 1016.1 in /  34405.1 hPa Calm   1.6 mph /  2.6 km/h 94 % 0.0 in /  0 mm
19:29 2.9 °F /  -16.2 °C 2.0 °F /  -16.7 °C 1016.1 in /  34405.1 hPa Calm     94 % 0.0 in /  0 mm
19:35 2.9 °F /  -16.2 °C 2.0 °F /  -16.7 °C 1016.1 in /  34405.1 hPa Calm     94 % 0.0 in /  0 mm
19:41 2.9 °F /  -16.2 °C 2.0 °F /  -16.7 °C 1016.1 in /  34405.1 hPa Calm     94 % 0.0 in /  0 mm
19:57 2.6 °F /  -16.3 °C 1.7 °F /  -16.8 °C 1016.1 in /  34405.1 hPa Calm     94 % 0.0 in /  0 mm
20:03 2.6 °F /  -16.3 °C 1.9 °F /  -16.7 °C 1016.1 in /  34405.1 hPa Calm     95 % 0.0 in /  0 mm
20:09 2.7 °F /  -16.3 °C 2.0 °F /  -16.7 °C 1016.1 in /  34405.1 hPa WNW 1.4 mph /  2.3 km/h 1.6 mph /  2.6 km/h 95 % 0.0 in /  0 mm
20:15 2.6 °F /  -16.3 °C 1.7 °F /  -16.8 °C 1016.1 in /  34405.1 hPa Calm     94 % 0.0 in /  0 mm
20:21 2.3 °F /  -16.5 °C 1.4 °F /  -17 °C 1016.1 in /  34405.1 hPa Calm   1.6 mph /  2.6 km/h 94 % 0.0 in /  0 mm
20:28 2.2 °F /  -16.6 °C 1.5 °F /  -16.9 °C 1016.1 in /  34405.1 hPa WNW 1.4 mph /  2.3 km/h 1.6 mph /  2.6 km/h 95 % 0.0 in /  0 mm
20:34 2.2 °F /  -16.6 °C 1.5 °F /  -16.9 °C 1016.1 in /  34405.1 hPa Calm   1.6 mph /  2.6 km/h 95 % 0.0 in /  0 mm
20:50 2.5 °F /  -16.4 °C 1.9 °F /  -16.7 °C 1015.8 in /  34395 hPa Calm     96 % 0.0 in /  0 mm
20:56 2.4 °F /  -16.4 °C 1.7 °F /  -16.8 °C 1015.8 in /  34395 hPa Calm   1.6 mph /  2.6 km/h 95 % 0.0 in /  0 mm
21:02 2.3 °F /  -16.5 °C 1.6 °F /  -16.9 °C 1015.8 in /  34395 hPa Calm     95 % 0.0 in /  0 mm
21:08 2.2 °F /  -16.6 °C 1.3 °F /  -17.1 °C 1015.8 in /  34395 hPa Calm     94 % 0.0 in /  0 mm
21:18 2.2 °F /  -16.6 °C 1.5 °F /  -16.9 °C 1015.8 in /  34395 hPa Calm   1.6 mph /  2.6 km/h 95 % 0.0 in /  0 mm
21:24 2.2 °F /  -16.6 °C 1.5 °F /  -16.9 °C 1015.8 in /  34395 hPa Calm   1.6 mph /  2.6 km/h 95 % 0.0 in /  0 mm
21:30 2.2 °F /  -16.6 °C 1.5 °F /  -16.9 °C 1015.8 in /  34395 hPa Calm   1.6 mph /  2.6 km/h 95 % 0.0 in /  0 mm
21:36 2.2 °F /  -16.6 °C 1.3 °F /  -17.1 °C 1015.8 in /  34395 hPa North 1.4 mph /  2.3 km/h 1.6 mph /  2.6 km/h 94 % 0.0 in /  0 mm
21:42 2.2 °F /  -16.6 °C 1.5 °F /  -16.9 °C 1015.8 in /  34395 hPa Calm     95 % 0.0 in /  0 mm
21:48 2.2 °F /  -16.6 °C 1.5 °F /  -16.9 °C 1015.8 in /  34395 hPa Calm   1.6 mph /  2.6 km/h 95 % 0.0 in /  0 mm
21:54 2.3 °F /  -16.5 °C 1.6 °F /  -16.9 °C 1015.8 in /  34395 hPa Calm   1.6 mph /  2.6 km/h 95 % 0.0 in /  0 mm
22:00 2.3 °F /  -16.5 °C 1.4 °F /  -17 °C 1015.8 in /  34395 hPa Calm   1.6 mph /  2.6 km/h 94 % 0.0 in /  0 mm
22:06 2.3 °F /  -16.5 °C 1.4 °F /  -17 °C 1015.8 in /  34395 hPa Calm     94 % 0.0 in /  0 mm
22:12 2.2 °F /  -16.6 °C 1.3 °F /  -17.1 °C 1015.8 in /  34395 hPa Calm   1.6 mph /  2.6 km/h 94 % 0.0 in /  0 mm
22:22 2.1 °F /  -16.6 °C 1.1 °F /  -17.2 °C 1015.8 in /  34395 hPa Calm   1.6 mph /  2.6 km/h 93 % 0.0 in /  0 mm
22:29 2.1 °F /  -16.6 °C 1.4 °F /  -17 °C 1015.8 in /  34395 hPa Calm     95 % 0.0 in /  0 mm
22:35 2.2 °F /  -16.6 °C 1.5 °F /  -16.9 °C 1015.8 in /  34395 hPa Calm   1.6 mph /  2.6 km/h 95 % 0.0 in /  0 mm
22:41 2.1 °F /  -16.6 °C 1.4 °F /  -17 °C 1015.8 in /  34395 hPa Calm     95 % 0.0 in /  0 mm
22:49 2.3 °F /  -16.5 °C 1.6 °F /  -16.9 °C 1015.8 in /  34395 hPa Calm     95 % 0.0 in /  0 mm
22:55 2.3 °F /  -16.5 °C 1.6 °F /  -16.9 °C 1015.8 in /  34395 hPa Calm     95 % 0.0 in /  0 mm
23:05 2.4 °F /  -16.4 °C 1.7 °F /  -16.8 °C 1015.8 in /  34395 hPa Calm     95 % 0.0 in /  0 mm
23:11 2.4 °F /  -16.4 °C 1.7 °F /  -16.8 °C 1015.8 in /  34395 hPa Calm     95 % 0.0 in /  0 mm
23:17 2.4 °F /  -16.4 °C 1.5 °F /  -16.9 °C 1015.8 in /  34395 hPa Calm     94 % 0.0 in /  0 mm
23:23 2.4 °F /  -16.4 °C 1.5 °F /  -16.9 °C 1015.8 in /  34395 hPa Calm     94 % 0.0 in /  0 mm
23:29 2.4 °F /  -16.4 °C 1.5 °F /  -16.9 °C 1015.8 in /  34395 hPa Calm     94 % 0.0 in /  0 mm
23:35 2.3 °F /  -16.5 °C 1.4 °F /  -17 °C 1015.8 in /  34395 hPa Calm     94 % 0.0 in /  0 mm
23:41 2.3 °F /  -16.5 °C 1.4 °F /  -17 °C 1015.8 in /  34395 hPa Calm     94 % 0.0 in /  0 mm
23:47 2.3 °F /  -16.5 °C 1.4 °F /  -17 °C 1016.1 in /  34405.1 hPa Calm     94 % 0.0 in /  0 mm
23:53 2.4 °F /  -16.4 °C 1.5 °F /  -16.9 °C 1016.1 in /  34405.1 hPa Calm     94 % 0.0 in /  0 mm
23:59 2.4 °F /  -16.4 °C 1.5 °F /  -16.9 °C 1016.1 in /  34405.1 hPa Calm     94 % 0.0 in /  0 mm
Meteo18
Compliments of Weather Underground - 4 mb

Script developed by  Jim McMurry - jmcmurry@mwt.net Adapted for the template by  Wim van der Kuil - Leuven-Template.eu

You find our weather info also at:

European Weather Network

Weather Underground

Equipment we use:

Weather-station
Davis Vue

Weather-program
Meteobridge

Weather-server
Raspberry PI 2 B+

Provider
1 and 1

Davis Vue

Meteobridge

Raspberry PI 2 B+

1 and 1